sensor_id;sensor_type;location;lat;lon;timestamp;pressure;altitude;pressure_sealevel;temperature;humidity
76940;BME280;65885;55.848;35.916;2023-02-01T00:00:38;97935.53;;;2.02;71.21
76940;BME280;65885;55.848;35.916;2023-02-01T00:03:06;97935.53;;;2.02;70.62
76940;BME280;65885;55.848;35.916;2023-02-01T00:05:34;97938.16;;;2.01;71.06
76940;BME280;65885;55.848;35.916;2023-02-01T00:08:01;97935.63;;;1.99;71.33
76940;BME280;65885;55.848;35.916;2023-02-01T00:10:29;97930.47;;;1.99;71.53
76940;BME280;65885;55.848;35.916;2023-02-01T00:12:57;97929.56;;;2.00;70.84
76940;BME280;65885;55.848;35.916;2023-02-01T00:15:25;97929.19;;;2.12;71.87
76940;BME280;65885;55.848;35.916;2023-02-01T00:17:53;97920.88;;;2.29;71.53
76940;BME280;65885;55.848;35.916;2023-02-01T00:20:20;97927.03;;;2.52;70.56
76940;BME280;65885;55.848;35.916;2023-02-01T00:22:48;97924.56;;;2.73;70.14
76940;BME280;65885;55.848;35.916;2023-02-01T00:25:15;97927.34;;;2.92;70.12
76940;BME280;65885;55.848;35.916;2023-02-01T00:27:42;97919.84;;;3.08;69.46
76940;BME280;65885;55.848;35.916;2023-02-01T00:30:12;97925.28;;;3.25;68.94
76940;BME280;65885;55.848;35.916;2023-02-01T00:32:39;97921.31;;;3.39;68.36
76940;BME280;65885;55.848;35.916;2023-02-01T00:35:08;97927.91;;;3.47;67.75
76940;BME280;65885;55.848;35.916;2023-02-01T00:37:35;97929.66;;;3.47;67.34
76940;BME280;65885;55.848;35.916;2023-02-01T00:40:03;97932.53;;;3.39;67.18
76940;BME280;65885;55.848;35.916;2023-02-01T00:42:31;97929.50;;;3.28;67.31
76940;BME280;65885;55.848;35.916;2023-02-01T00:44:58;97935.13;;;3.16;67.74
76940;BME280;65885;55.848;35.916;2023-02-01T00:47:28;97936.44;;;3.04;67.60
76940;BME280;65885;55.848;35.916;2023-02-01T00:49:56;97935.94;;;2.93;68.35
76940;BME280;65885;55.848;35.916;2023-02-01T00:52:23;97932.84;;;2.83;68.25
76940;BME280;65885;55.848;35.916;2023-02-01T00:54:50;97932.31;;;2.73;68.77
76940;BME280;65885;55.848;35.916;2023-02-01T00:57:17;97935.19;;;2.64;68.65
76940;BME280;65885;55.848;35.916;2023-02-01T00:59:45;97935.44;;;2.58;69.17
76940;BME280;65885;55.848;35.916;2023-02-01T01:02:12;97939.06;;;2.53;69.12
76940;BME280;65885;55.848;35.916;2023-02-01T01:04:43;97944.38;;;2.48;69.77
76940;BME280;65885;55.848;35.916;2023-02-01T01:07:10;97939.44;;;2.42;69.30
76940;BME280;65885;55.848;35.916;2023-02-01T01:09:37;97934.41;;;2.37;69.86
76940;BME280;65885;55.848;35.916;2023-02-01T01:12:05;97939.66;;;2.34;69.71
76940;BME280;65885;55.848;35.916;2023-02-01T01:14:33;97931.16;;;2.31;70.42
76940;BME280;65885;55.848;35.916;2023-02-01T01:17:00;97933.88;;;2.28;70.56
76940;BME280;65885;55.848;35.916;2023-02-01T01:19:27;97933.94;;;2.25;70.81
76940;BME280;65885;55.848;35.916;2023-02-01T01:21:56;97939.22;;;2.21;70.41
76940;BME280;65885;55.848;35.916;2023-02-01T01:24:23;97929.81;;;2.19;70.72
76940;BME280;65885;55.848;35.916;2023-02-01T01:26:50;97939.38;;;2.17;70.70
76940;BME280;65885;55.848;35.916;2023-02-01T01:29:18;97944.59;;;2.15;70.13
76940;BME280;65885;55.848;35.916;2023-02-01T01:31:45;97943.81;;;2.13;70.94
76940;BME280;65885;55.848;35.916;2023-02-01T01:34:13;97942.13;;;2.11;71.05
76940;BME280;65885;55.848;35.916;2023-02-01T01:36:40;97948.25;;;2.08;71.05
76940;BME280;65885;55.848;35.916;2023-02-01T01:39:09;97944.91;;;2.06;70.91
76940;BME280;65885;55.848;35.916;2023-02-01T01:41:36;97943.22;;;2.05;70.63
76940;BME280;65885;55.848;35.916;2023-02-01T01:44:05;97939.78;;;2.03;71.13
76940;BME280;65885;55.848;35.916;2023-02-01T01:46:35;97943.28;;;2.02;70.64
76940;BME280;65885;55.848;35.916;2023-02-01T01:49:05;97937.31;;;2.00;71.22
76940;BME280;65885;55.848;35.916;2023-02-01T01:51:37;97942.53;;;1.99;70.66
76940;BME280;65885;55.848;35.916;2023-02-01T01:54:10;97947.78;;;1.97;71.42
76940;BME280;65885;55.848;35.916;2023-02-01T01:56:40;97956.38;;;1.98;71.36
76940;BME280;65885;55.848;35.916;2023-02-01T01:59:08;97949.22;;;2.06;71.07
76940;BME280;65885;55.848;35.916;2023-02-01T02:01:36;97946.88;;;2.25;71.46
76940;BME280;65885;55.848;35.916;2023-02-01T02:04:03;97941.78;;;2.48;71.59
76940;BME280;65885;55.848;35.916;2023-02-01T02:06:37;97943.56;;;2.72;70.96
76940;BME280;65885;55.848;35.916;2023-02-01T02:09:06;97940.22;;;2.94;69.80
76940;BME280;65885;55.848;35.916;2023-02-01T02:11:35;97935.19;;;3.14;69.78
76940;BME280;65885;55.848;35.916;2023-02-01T02:14:05;97937.16;;;3.31;68.58
76940;BME280;65885;55.848;35.916;2023-02-01T02:16:52;97940.03;;;3.47;68.10
76940;BME280;65885;55.848;35.916;2023-02-01T02:19:54;97941.63;;;3.51;67.56
76940;BME280;65885;55.848;35.916;2023-02-01T02:25:59;97950.16;;;3.29;67.19
76940;BME280;65885;55.848;35.916;2023-02-01T02:28:52;97950.72;;;3.14;67.41
76940;BME280;65885;55.848;35.916;2023-02-01T02:31:45;97951.31;;;2.97;68.35
76940;BME280;65885;55.848;35.916;2023-02-01T02:34:25;97958.66;;;2.85;68.56
76940;BME280;65885;55.848;35.916;2023-02-01T02:37:03;97955.63;;;2.73;68.82
76940;BME280;65885;55.848;35.916;2023-02-01T02:39:38;97960.22;;;2.64;68.77
76940;BME280;65885;55.848;35.916;2023-02-01T02:42:14;97959.66;;;2.56;69.09
76940;BME280;65885;55.848;35.916;2023-02-01T02:45:06;97965.06;;;2.48;69.38
76940;BME280;65885;55.848;35.916;2023-02-01T02:47:55;97967.00;;;2.41;70.04
76940;BME280;65885;55.848;35.916;2023-02-01T02:50:27;97970.63;;;2.37;69.97
76940;BME280;65885;55.848;35.916;2023-02-01T02:53:16;97968.97;;;2.35;70.15
76940;BME280;65885;55.848;35.916;2023-02-01T02:56:03;97970.88;;;2.30;70.21
76940;BME280;65885;55.848;35.916;2023-02-01T02:58:50;97963.19;;;2.27;70.53
76940;BME280;65885;55.848;35.916;2023-02-01T03:01:34;97962.41;;;2.25;70.29
76940;BME280;65885;55.848;35.916;2023-02-01T03:04:19;97970.22;;;2.23;71.40
76940;BME280;65885;55.848;35.916;2023-02-01T03:06:48;97971.94;;;2.22;71.05
76940;BME280;65885;55.848;35.916;2023-02-01T03:09:20;97971.09;;;2.22;71.37
76940;BME280;65885;55.848;35.916;2023-02-01T03:11:49;97966.88;;;2.19;70.74
76940;BME280;65885;55.848;35.916;2023-02-01T03:14:37;97966.88;;;2.19;71.43
76940;BME280;65885;55.848;35.916;2023-02-01T03:17:11;97969.47;;;2.19;71.54
76940;BME280;65885;55.848;35.916;2023-02-01T03:19:43;97969.50;;;2.18;71.56
76940;BME280;65885;55.848;35.916;2023-02-01T03:22:19;97971.25;;;2.17;71.10
76940;BME280;65885;55.848;35.916;2023-02-01T03:24:51;97967.81;;;2.17;71.07
76940;BME280;65885;55.848;35.916;2023-02-01T03:27:23;97972.97;;;2.17;71.46
76940;BME280;65885;55.848;35.916;2023-02-01T03:29:58;97972.13;;;2.16;70.96
76940;BME280;65885;55.848;35.916;2023-02-01T03:32:30;97977.38;;;2.15;71.28
76940;BME280;65885;55.848;35.916;2023-02-01T03:35:21;97981.69;;;2.14;71.75
76940;BME280;65885;55.848;35.916;2023-02-01T03:38:01;97979.94;;;2.15;71.19
76940;BME280;65885;55.848;35.916;2023-02-01T03:40:35;97986.47;;;2.27;71.35
76940;BME280;65885;55.848;35.916;2023-02-01T03:43:05;97990.09;;;2.47;71.13
76940;BME280;65885;55.848;35.916;2023-02-01T03:45:38;97988.56;;;2.68;70.77
76940;BME280;65885;55.848;35.916;2023-02-01T03:48:09;97997.28;;;2.91;70.53
76940;BME280;65885;55.848;35.916;2023-02-01T03:50:39;98000.06;;;3.11;70.17
76940;BME280;65885;55.848;35.916;2023-02-01T03:53:15;97991.69;;;3.28;69.42
76940;BME280;65885;55.848;35.916;2023-02-01T03:55:43;97996.31;;;3.43;68.89
76940;BME280;65885;55.848;35.916;2023-02-01T03:58:13;97996.72;;;3.56;68.03
76940;BME280;65885;55.848;35.916;2023-02-01T04:00:44;97996.47;;;3.62;67.57
76940;BME280;65885;55.848;35.916;2023-02-01T04:03:11;97996.59;;;3.59;67.25
76940;BME280;65885;55.848;35.916;2023-02-01T04:05:39;97996.94;;;3.50;67.39
76940;BME280;65885;55.848;35.916;2023-02-01T04:08:06;97999.06;;;3.39;67.37
76940;BME280;65885;55.848;35.916;2023-02-01T04:10:35;97996.94;;;3.25;67.83
76940;BME280;65885;55.848;35.916;2023-02-01T04:13:02;98006.03;;;3.13;68.09
76940;BME280;65885;55.848;35.916;2023-02-01T04:15:30;98004.75;;;3.00;68.18
76940;BME280;65885;55.848;35.916;2023-02-01T04:17:57;98002.47;;;2.91;68.73
76940;BME280;65885;55.848;35.916;2023-02-01T04:20:24;98010.63;;;2.80;68.65
76940;BME280;65885;55.848;35.916;2023-02-01T04:22:52;98016.03;;;2.72;69.22
76940;BME280;65885;55.848;35.916;2023-02-01T04:25:19;98022.34;;;2.64;69.43
76940;BME280;65885;55.848;35.916;2023-02-01T04:27:48;98021.66;;;2.59;69.17
76940;BME280;65885;55.848;35.916;2023-02-01T04:30:16;98025.28;;;2.53;69.26
76940;BME280;65885;55.848;35.916;2023-02-01T04:32:43;98022.91;;;2.47;69.54
76940;BME280;65885;55.848;35.916;2023-02-01T04:35:11;98022.22;;;2.42;69.99
76940;BME280;65885;55.848;35.916;2023-02-01T04:37:38;98023.19;;;2.38;69.68
76940;BME280;65885;55.848;35.916;2023-02-01T04:40:06;98028.47;;;2.35;69.78
76940;BME280;65885;55.848;35.916;2023-02-01T04:42:34;98029.44;;;2.31;70.56
76940;BME280;65885;55.848;35.916;2023-02-01T04:45:03;98031.31;;;2.27;70.71
76940;BME280;65885;55.848;35.916;2023-02-01T04:47:31;98031.38;;;2.24;70.34
76940;BME280;65885;55.848;35.916;2023-02-01T04:49:58;98035.75;;;2.22;70.95
76940;BME280;65885;55.848;35.916;2023-02-01T04:52:26;98040.16;;;2.20;70.52
76940;BME280;65885;55.848;35.916;2023-02-01T04:54:54;98040.16;;;2.18;71.04
76940;BME280;65885;55.848;35.916;2023-02-01T04:57:23;98049.72;;;2.16;70.45
76940;BME280;65885;55.848;35.916;2023-02-01T04:59:52;98042.91;;;2.14;71.25
76940;BME280;65885;55.848;35.916;2023-02-01T05:02:24;98042.13;;;2.12;71.33
76940;BME280;65885;55.848;35.916;2023-02-01T05:04:51;98046.41;;;2.11;70.80
76940;BME280;65885;55.848;35.916;2023-02-01T05:07:19;98043.88;;;2.10;71.38
76940;BME280;65885;55.848;35.916;2023-02-01T05:09:47;98045.69;;;2.08;71.10
76940;BME280;65885;55.848;35.916;2023-02-01T05:12:14;98050.06;;;2.06;70.85
76940;BME280;65885;55.848;35.916;2023-02-01T05:14:59;98053.56;;;2.03;71.58
76940;BME280;65885;55.848;35.916;2023-02-01T05:17:28;98060.53;;;2.01;70.87
76940;BME280;65885;55.848;35.916;2023-02-01T05:19:57;98052.88;;;1.98;71.16
76940;BME280;65885;55.848;35.916;2023-02-01T05:22:26;98054.63;;;1.96;71.04
76940;BME280;65885;55.848;35.916;2023-02-01T05:24:54;98049.50;;;1.94;70.65
76940;BME280;65885;55.848;35.916;2023-02-01T05:27:21;98056.97;;;2.05;70.83
76940;BME280;65885;55.848;35.916;2023-02-01T05:29:48;98065.09;;;2.21;71.09
76940;BME280;65885;55.848;35.916;2023-02-01T05:32:16;98067.16;;;2.38;70.19
76940;BME280;65885;55.848;35.916;2023-02-01T05:34:47;98070.91;;;2.57;69.89
76940;BME280;65885;55.848;35.916;2023-02-01T05:37:15;98070.41;;;2.72;69.19
76940;BME280;65885;55.848;35.916;2023-02-01T05:39:42;98067.34;;;2.86;68.41
76940;BME280;65885;55.848;35.916;2023-02-01T05:42:09;98060.94;;;2.98;68.07
76940;BME280;65885;55.848;35.916;2023-02-01T05:44:37;98062.31;;;3.08;67.42
76940;BME280;65885;55.848;35.916;2023-02-01T05:47:04;98058.72;;;3.12;67.40
76940;BME280;65885;55.848;35.916;2023-02-01T05:49:32;98057.06;;;3.10;67.10
76940;BME280;65885;55.848;35.916;2023-02-01T05:52:00;98064.34;;;2.98;66.88
76940;BME280;65885;55.848;35.916;2023-02-01T05:54:28;98063.97;;;2.84;66.55
76940;BME280;65885;55.848;35.916;2023-02-01T05:56:55;98067.06;;;2.69;66.54
76940;BME280;65885;55.848;35.916;2023-02-01T05:59:22;98070.97;;;2.54;67.33
76940;BME280;65885;55.848;35.916;2023-02-01T06:01:50;98076.56;;;2.40;67.14
76940;BME280;65885;55.848;35.916;2023-02-01T06:04:17;98075.22;;;2.29;67.68
76940;BME280;65885;55.848;35.916;2023-02-01T06:06:45;98071.25;;;2.17;68.55
76940;BME280;65885;55.848;35.916;2023-02-01T06:09:14;98074.13;;;2.08;68.39
76940;BME280;65885;55.848;35.916;2023-02-01T06:11:42;98083.00;;;1.99;68.92
76940;BME280;65885;55.848;35.916;2023-02-01T06:14:09;98078.84;;;1.93;68.70
76940;BME280;65885;55.848;35.916;2023-02-01T06:16:37;98078.97;;;1.89;68.97
76940;BME280;65885;55.848;35.916;2023-02-01T06:19:04;98080.81;;;1.85;69.56
76940;BME280;65885;55.848;35.916;2023-02-01T06:21:31;98085.19;;;1.83;69.82
76940;BME280;65885;55.848;35.916;2023-02-01T06:23:59;98082.63;;;1.82;70.09
76940;BME280;65885;55.848;35.916;2023-02-01T06:26:28;98086.06;;;1.82;69.98
76940;BME280;65885;55.848;35.916;2023-02-01T06:28:56;98088.66;;;1.82;70.83
76940;BME280;65885;55.848;35.916;2023-02-01T06:31:23;98089.50;;;1.83;70.41
76940;BME280;65885;55.848;35.916;2023-02-01T06:33:51;98090.41;;;1.82;70.66
76940;BME280;65885;55.848;35.916;2023-02-01T06:36:19;98090.34;;;1.83;70.57
76940;BME280;65885;55.848;35.916;2023-02-01T06:38:47;98083.38;;;1.85;70.83
76940;BME280;65885;55.848;35.916;2023-02-01T06:41:15;98089.34;;;1.87;70.70
76940;BME280;65885;55.848;35.916;2023-02-01T06:43:44;98080.69;;;1.90;70.89
76940;BME280;65885;55.848;35.916;2023-02-01T06:46:13;98081.44;;;1.93;71.42
76940;BME280;65885;55.848;35.916;2023-02-01T06:48:40;98084.78;;;1.97;70.83
76940;BME280;65885;55.848;35.916;2023-02-01T06:51:19;98083.84;;;2.00;71.65
76940;BME280;65885;55.848;35.916;2023-02-01T06:53:49;98082.00;;;2.03;71.26
76940;BME280;65885;55.848;35.916;2023-02-01T06:56:17;98085.41;;;2.05;70.96
76940;BME280;65885;55.848;35.916;2023-02-01T06:58:46;98092.22;;;2.08;71.49
76940;BME280;65885;55.848;35.916;2023-02-01T07:01:14;98084.41;;;2.09;71.56
76940;BME280;65885;55.848;35.916;2023-02-01T07:03:42;98087.75;;;2.13;71.68
76940;BME280;65885;55.848;35.916;2023-02-01T07:06:10;98084.84;;;2.23;71.66
76940;BME280;65885;55.848;35.916;2023-02-01T07:08:38;98083.34;;;2.44;71.65
76940;BME280;65885;55.848;35.916;2023-02-01T07:11:06;98082.56;;;2.69;71.23
76940;BME280;65885;55.848;35.916;2023-02-01T07:13:34;98092.06;;;2.96;71.07
76940;BME280;65885;55.848;35.916;2023-02-01T07:16:05;98086.00;;;3.22;70.77
76940;BME280;65885;55.848;35.916;2023-02-01T07:18:33;98092.06;;;3.46;70.17
76940;BME280;65885;55.848;35.916;2023-02-01T07:21:00;98089.56;;;3.68;69.17
76940;BME280;65885;55.848;35.916;2023-02-01T07:23:27;98091.41;;;3.89;68.66
76940;BME280;65885;55.848;35.916;2023-02-01T07:25:55;98089.03;;;4.07;68.09
76940;BME280;65885;55.848;35.916;2023-02-01T07:28:23;98094.75;;;4.16;67.53
76940;BME280;65885;55.848;35.916;2023-02-01T07:30:50;98095.50;;;4.18;67.09
76940;BME280;65885;55.848;35.916;2023-02-01T07:33:26;98091.16;;;4.19;67.31
76940;BME280;65885;55.848;35.916;2023-02-01T07:35:54;98091.41;;;4.13;67.43
76940;BME280;65885;55.848;35.916;2023-02-01T07:38:21;98095.03;;;4.09;67.56
76940;BME280;65885;55.848;35.916;2023-02-01T07:40:49;98090.00;;;4.04;67.93
76940;BME280;65885;55.848;35.916;2023-02-01T07:43:17;98093.66;;;3.99;67.84
76940;BME280;65885;55.848;35.916;2023-02-01T07:45:51;98090.41;;;3.94;67.71
76940;BME280;65885;55.848;35.916;2023-02-01T07:48:20;98088.69;;;3.93;68.07
76940;BME280;65885;55.848;35.916;2023-02-01T07:50:48;98079.22;;;3.92;68.57
76940;BME280;65885;55.848;35.916;2023-02-01T07:53:15;98086.91;;;3.95;68.74
76940;BME280;65885;55.848;35.916;2023-02-01T07:55:43;98087.63;;;3.98;68.95
76940;BME280;65885;55.848;35.916;2023-02-01T07:58:10;98084.03;;;4.02;69.39
76940;BME280;65885;55.848;35.916;2023-02-01T08:00:37;98079.50;;;4.07;69.26
76940;BME280;65885;55.848;35.916;2023-02-01T08:03:24;98087.13;;;4.12;69.50
76940;BME280;65885;55.848;35.916;2023-02-01T08:05:54;98089.56;;;4.15;69.64
76940;BME280;65885;55.848;35.916;2023-02-01T08:08:23;98091.16;;;4.19;69.78
76940;BME280;65885;55.848;35.916;2023-02-01T08:10:50;98086.69;;;4.23;69.60
76940;BME280;65885;55.848;35.916;2023-02-01T08:13:20;98096.06;;;4.27;69.38
76940;BME280;65885;55.848;35.916;2023-02-01T08:15:47;98095.16;;;4.28;69.04
76940;BME280;65885;55.848;35.916;2023-02-01T08:18:14;98096.00;;;4.28;68.95
76940;BME280;65885;55.848;35.916;2023-02-01T08:20:45;98096.78;;;4.30;68.83
76940;BME280;65885;55.848;35.916;2023-02-01T08:23:13;98092.50;;;4.29;68.47
76940;BME280;65885;55.848;35.916;2023-02-01T08:25:40;98091.72;;;4.27;68.20
76940;BME280;65885;55.848;35.916;2023-02-01T08:28:07;98082.25;;;4.26;68.29
76940;BME280;65885;55.848;35.916;2023-02-01T08:30:36;98087.53;;;4.23;67.97
76940;BME280;65885;55.848;35.916;2023-02-01T08:33:05;98093.69;;;4.21;67.94
76940;BME280;65885;55.848;35.916;2023-02-01T08:35:35;98085.19;;;4.17;67.90
76940;BME280;65885;55.848;35.916;2023-02-01T08:38:04;98089.56;;;4.15;68.23
76940;BME280;65885;55.848;35.916;2023-02-01T08:40:32;98093.09;;;4.14;68.54
76940;BME280;65885;55.848;35.916;2023-02-01T08:43:00;98093.09;;;4.14;68.71
76940;BME280;65885;55.848;35.916;2023-02-01T08:45:28;98093.00;;;4.15;68.43
76940;BME280;65885;55.848;35.916;2023-02-01T08:47:56;98090.41;;;4.15;68.98
76940;BME280;65885;55.848;35.916;2023-02-01T08:50:25;98088.69;;;4.16;69.10
76940;BME280;65885;55.848;35.916;2023-02-01T08:52:53;98085.97;;;4.19;69.25
76940;BME280;65885;55.848;35.916;2023-02-01T08:55:21;98081.56;;;4.21;69.10
76940;BME280;65885;55.848;35.916;2023-02-01T08:57:49;98074.63;;;4.22;69.09
76940;BME280;65885;55.848;35.916;2023-02-01T09:00:17;98081.34;;;4.27;69.10
76940;BME280;65885;55.848;35.916;2023-02-01T09:02:45;98083.22;;;4.45;69.81
76940;BME280;65885;55.848;35.916;2023-02-01T09:05:12;98078.00;;;4.69;70.02
76940;BME280;65885;55.848;35.916;2023-02-01T09:07:42;98083.09;;;4.92;69.40
76940;BME280;65885;55.848;35.916;2023-02-01T09:10:10;98075.31;;;5.13;68.43
76940;BME280;65885;55.848;35.916;2023-02-01T09:12:40;98076.19;;;5.34;68.06
76940;BME280;65885;55.848;35.916;2023-02-01T09:15:10;98077.13;;;5.51;67.09
76940;BME280;65885;55.848;35.916;2023-02-01T09:17:37;98064.25;;;5.69;66.99
76940;BME280;65885;55.848;35.916;2023-02-01T09:20:10;98067.94;;;5.83;66.85
76940;BME280;65885;55.848;35.916;2023-02-01T09:22:38;98058.16;;;5.89;66.52
76940;BME280;65885;55.848;35.916;2023-02-01T09:25:06;98057.31;;;5.88;66.64
76940;BME280;65885;55.848;35.916;2023-02-01T09:27:34;98053.19;;;5.84;66.78
76940;BME280;65885;55.848;35.916;2023-02-01T09:30:04;98058.50;;;5.81;66.88
76940;BME280;65885;55.848;35.916;2023-02-01T09:32:32;98058.78;;;5.75;66.80
76940;BME280;65885;55.848;35.916;2023-02-01T09:34:59;98058.25;;;5.67;66.54
76940;BME280;65885;55.848;35.916;2023-02-01T09:37:26;98055.88;;;5.62;66.18
76940;BME280;65885;55.848;35.916;2023-02-01T09:39:54;98068.31;;;5.55;66.63
76940;BME280;65885;55.848;35.916;2023-02-01T09:42:33;98067.66;;;5.50;66.93
76940;BME280;65885;55.848;35.916;2023-02-01T09:45:14;98072.34;;;5.42;67.24
76940;BME280;65885;55.848;35.916;2023-02-01T09:47:47;98064.88;;;5.35;66.97
76940;BME280;65885;55.848;35.916;2023-02-01T09:50:18;98073.00;;;5.27;66.67
76940;BME280;65885;55.848;35.916;2023-02-01T09:52:54;98068.03;;;5.21;67.16
76940;BME280;65885;55.848;35.916;2023-02-01T09:55:30;98069.16;;;5.15;67.08
76940;BME280;65885;55.848;35.916;2023-02-01T09:58:02;98062.47;;;5.10;67.60
76940;BME280;65885;55.848;35.916;2023-02-01T10:00:34;98060.97;;;5.04;67.26
76940;BME280;65885;55.848;35.916;2023-02-01T10:03:03;98067.31;;;4.97;67.41
76940;BME280;65885;55.848;35.916;2023-02-01T10:05:43;98065.84;;;4.91;67.65
76940;BME280;65885;55.848;35.916;2023-02-01T10:08:21;98068.59;;;4.87;68.53
76940;BME280;65885;55.848;35.916;2023-02-01T10:10:56;98070.53;;;4.82;68.54
76940;BME280;65885;55.848;35.916;2023-02-01T10:13:38;98066.50;;;4.74;68.30
76940;BME280;65885;55.848;35.916;2023-02-01T10:16:23;98067.53;;;4.70;68.11
76940;BME280;65885;55.848;35.916;2023-02-01T10:19:21;98062.41;;;4.69;68.38
76940;BME280;65885;55.848;35.916;2023-02-01T10:21:56;98064.22;;;4.67;68.04
76940;BME280;65885;55.848;35.916;2023-02-01T10:24:34;98065.13;;;4.66;68.42
76940;BME280;65885;55.848;35.916;2023-02-01T10:27:12;98059.16;;;4.64;68.33
76940;BME280;65885;55.848;35.916;2023-02-01T10:29:42;98060.97;;;4.62;68.30
76940;BME280;65885;55.848;35.916;2023-02-01T10:32:16;98056.72;;;4.59;68.09
76940;BME280;65885;55.848;35.916;2023-02-01T10:34:47;98057.84;;;4.54;67.59
76940;BME280;65885;55.848;35.916;2023-02-01T10:37:24;98059.81;;;4.47;68.12
76940;BME280;65885;55.848;35.916;2023-02-01T10:39:55;98049.75;;;4.39;68.07
76940;BME280;65885;55.848;35.916;2023-02-01T10:42:25;98050.03;;;4.32;68.50
76940;BME280;65885;55.848;35.916;2023-02-01T10:44:55;98049.38;;;4.27;68.51
76940;BME280;65885;55.848;35.916;2023-02-01T10:47:25;98035.72;;;4.22;68.38
76940;BME280;65885;55.848;35.916;2023-02-01T10:49:57;98055.69;;;4.20;68.90
76940;BME280;65885;55.848;35.916;2023-02-01T10:52:33;98047.13;;;4.17;69.19
76940;BME280;65885;55.848;35.916;2023-02-01T10:58:15;98045.66;;;4.10;68.64
76940;BME280;65885;55.848;35.916;2023-02-01T11:00:45;98044.88;;;4.08;68.62
76940;BME280;65885;55.848;35.916;2023-02-01T11:03:27;98044.91;;;4.07;69.21
76940;BME280;65885;55.848;35.916;2023-02-01T11:05:57;98048.38;;;4.07;69.61
76940;BME280;65885;55.848;35.916;2023-02-01T11:08:27;98041.41;;;4.08;69.46
76940;BME280;65885;55.848;35.916;2023-02-01T11:11:00;98036.91;;;4.13;69.66
76940;BME280;65885;55.848;35.916;2023-02-01T11:13:29;98042.28;;;4.30;69.90
76940;BME280;65885;55.848;35.916;2023-02-01T11:16:01;98043.97;;;4.53;69.63
76940;BME280;65885;55.848;35.916;2023-02-01T11:18:33;98042.16;;;4.77;69.48
76940;BME280;65885;55.848;35.916;2023-02-01T11:21:02;98038.50;;;5.03;69.34
76940;BME280;65885;55.848;35.916;2023-02-01T11:23:32;98049.66;;;5.25;68.73
76940;BME280;65885;55.848;35.916;2023-02-01T11:26:09;98041.06;;;5.44;68.58
76940;BME280;65885;55.848;35.916;2023-02-01T11:28:39;98039.69;;;5.55;67.50
76940;BME280;65885;55.848;35.916;2023-02-01T11:31:10;98036.09;;;5.58;67.23
76940;BME280;65885;55.848;35.916;2023-02-01T11:33:46;98039.00;;;5.52;66.62
76940;BME280;65885;55.848;35.916;2023-02-01T11:36:16;98042.91;;;5.42;66.58
76940;BME280;65885;55.848;35.916;2023-02-01T11:38:47;98045.31;;;5.26;66.85
76940;BME280;65885;55.848;35.916;2023-02-01T11:41:22;98038.94;;;5.13;67.43
76940;BME280;65885;55.848;35.916;2023-02-01T11:43:52;98048.19;;;4.99;67.82
76940;BME280;65885;55.848;35.916;2023-02-01T11:46:21;98048.66;;;4.87;68.17
76940;BME280;65885;55.848;35.916;2023-02-01T11:48:52;98047.47;;;4.74;67.77
76940;BME280;65885;55.848;35.916;2023-02-01T11:51:43;98048.16;;;4.57;68.03
76940;BME280;65885;55.848;35.916;2023-02-01T11:54:29;98047.78;;;4.44;68.34
76940;BME280;65885;55.848;35.916;2023-02-01T11:57:14;98047.53;;;4.29;68.11
76940;BME280;65885;55.848;35.916;2023-02-01T11:59:56;98046.28;;;4.17;68.42
76940;BME280;65885;55.848;35.916;2023-02-01T12:05:48;98048.94;;;3.92;68.61
76940;BME280;65885;55.848;35.916;2023-02-01T12:11:28;98047.88;;;3.74;68.94
76940;BME280;65885;55.848;35.916;2023-02-01T12:14:09;98049.91;;;3.66;69.43
76940;BME280;65885;55.848;35.916;2023-02-01T12:16:54;98052.72;;;3.60;69.42
76940;BME280;65885;55.848;35.916;2023-02-01T12:19:44;98059.06;;;3.51;69.68
76940;BME280;65885;55.848;35.916;2023-02-01T12:22:25;98058.38;;;3.46;69.56
76940;BME280;65885;55.848;35.916;2023-02-01T12:25:13;98057.66;;;3.43;70.26
76940;BME280;65885;55.848;35.916;2023-02-01T12:28:27;98054.31;;;3.39;69.90
76940;BME280;65885;55.848;35.916;2023-02-01T12:31:21;98054.56;;;3.33;70.45
76940;BME280;65885;55.848;35.916;2023-02-01T12:34:15;98058.03;;;3.32;70.30
76940;BME280;65885;55.848;35.916;2023-02-01T12:36:48;98062.41;;;3.30;70.40
76940;BME280;65885;55.848;35.916;2023-02-01T12:39:23;98063.38;;;3.27;70.27
76940;BME280;65885;55.848;35.916;2023-02-01T12:41:56;98064.31;;;3.25;70.62
76940;BME280;65885;55.848;35.916;2023-02-01T12:44:35;98055.81;;;3.21;70.34
76940;BME280;65885;55.848;35.916;2023-02-01T12:47:09;98056.72;;;3.20;70.50
76940;BME280;65885;55.848;35.916;2023-02-01T12:49:46;98060.16;;;3.21;70.43
76940;BME280;65885;55.848;35.916;2023-02-01T12:52:20;98061.00;;;3.21;70.25
76940;BME280;65885;55.848;35.916;2023-02-01T12:54:55;98069.59;;;3.22;70.84
76940;BME280;65885;55.848;35.916;2023-02-01T12:57:28;98063.63;;;3.20;70.41
76940;BME280;65885;55.848;35.916;2023-02-01T13:00:05;98061.06;;;3.20;70.78
76940;BME280;65885;55.848;35.916;2023-02-01T13:02:39;98065.31;;;3.21;70.52
76940;BME280;65885;55.848;35.916;2023-02-01T13:05:14;98069.13;;;3.36;70.80
76940;BME280;65885;55.848;35.916;2023-02-01T13:07:47;98069.28;;;3.56;70.52
76940;BME280;65885;55.848;35.916;2023-02-01T13:10:21;98059.84;;;3.78;69.87
76940;BME280;65885;55.848;35.916;2023-02-01T13:12:56;98059.84;;;4.02;69.48
76940;BME280;65885;55.848;35.916;2023-02-01T13:15:30;98059.06;;;4.22;69.28
76940;BME280;65885;55.848;35.916;2023-02-01T13:18:02;98063.50;;;4.41;68.63
76940;BME280;65885;55.848;35.916;2023-02-01T13:20:35;98062.81;;;4.58;68.21
76940;BME280;65885;55.848;35.916;2023-02-01T13:23:07;98060.75;;;4.66;67.25
76940;BME280;65885;55.848;35.916;2023-02-01T13:25:45;98066.03;;;4.65;66.84
76940;BME280;65885;55.848;35.916;2023-02-01T13:28:18;98064.72;;;4.55;66.58
76940;BME280;65885;55.848;35.916;2023-02-01T13:30:59;98073.09;;;4.39;66.85
76940;BME280;65885;55.848;35.916;2023-02-01T13:33:47;98066.00;;;4.21;66.80
76940;BME280;65885;55.848;35.916;2023-02-01T13:36:28;98068.41;;;4.04;67.11